Withams, Virginia
Current Conditions -  °F | °C
As of 2:54 PM on Friday 21 Nov 2014 (Local Time) from KWAL Reporting Station
Clear Clear  
Wind Chill: 29°   Ceiling: Unl
Heat Index: 37°   Visibility: 10mi
Dew Point:   Wind: 12mph
Humidity: 31%   Direction: 330°NNW
Pressure: 30.46"   Gusts: 21mph
Location:  37.95°N, 75.58°W
Report Text: KWAL 211954Z 33010G18KT 10SM CLR 03/M13 A3046 RMK AO2 SLP311 T00281128
Loading
Personal Weather Stations






























Interactive Weather Map New forecast layout! Learn more

10-Day Weather Forecast

Advertisements
Track Severe Weather on mobile